Главная страница
METAR-TAF:

METAR-TAF

Аэропорты :

Нариманово

Астрахань, Россия

широта: 46-17N, долгота: 048-00-23E, высота над уровнем моря: 0 м

Текущие метеонаблюдения

Эта сводка был подготовлена 29 минут назад, в 02:00 UTC
Ветер 4 Узел от северо-восточный
Температура 7°C
Влажность 81%
Давление 1026 hPa
Видимость 10 км и более
Нет облачности ниже 1500 м, и нет кучево-дождевой облачности

METAR: URWA 160200Z 04002MPS CAVOK 07/04 Q1026 R09/010070 NOSIG RMK QFE772/1029

Время: 05:29 (02:29 UTC)

Прогноз

Эта сводка был подготовлена 3 часа и 29 минут назад, в 23:00 UTC
Прогноз действительный с 16-го 00 UTC до 16-го 09 UTC
Ветер 6 Узел от восточный
Видимость 10 км и более
Отдельные облака на высоте 1500 фута
временами
С 16-го 00 UTC до 16-го 03 UTC
Видимость: 3100 м
Отдельные облака на высоте 1100 фута
дымка

TAF: URWA 152300Z 1600/1609 09003MPS 9999 SCT015 TEMPO 1600/1603 3100 BR SCT011

Метеонаблюдения и прогнозы для более 4000 аэропортов (сводки METAR и TAF).

Имеющиеся станции представлены на карте желтыми и красными точками.

Чтобы увидеть название станции, наведите на нее мышь.

Затем щелкните, чтобы увидеть метеонаблюдения и метеопрогнозы.

Управление картой: чтобы увеличить масштаб, щелкните зеленые кнопки с черным крестиком; чтобы уменьшить масштаб, щелкните зеленую кнопку с тире; для просмотра соседних карт щелкайте зеленые стрелки.


METAR-TAF: